createdAt,value
2019-01-16T00:01:10.049Z,8.76
2019-01-16T00:07:05.040Z,9.87
2019-01-16T00:12:59.995Z,11.14
2019-01-16T00:18:54.998Z,13.62
2019-01-16T00:24:50.025Z,8.61
2019-01-16T00:30:44.978Z,10.77
2019-01-16T00:36:39.963Z,7.22
2019-01-16T00:42:34.977Z,8.97
2019-01-16T00:48:29.973Z,9.97
2019-01-16T00:54:24.994Z,9.49
2019-01-16T01:00:19.997Z,7.8
2019-01-16T01:06:15.009Z,6.58
2019-01-16T01:12:10.024Z,7.97
2019-01-16T01:18:04.977Z,14.4
2019-01-16T01:23:59.997Z,8.19
2019-01-16T01:29:55.034Z,11.5
2019-01-16T01:35:49.989Z,7.7
2019-01-16T01:41:45.075Z,10.01
2019-01-16T01:47:40.006Z,11.13
2019-01-16T01:53:35.051Z,8.91
2019-01-16T01:59:30.053Z,6.86
2019-01-16T02:05:25.003Z,6.82
2019-01-16T02:11:20.029Z,4.65
2019-01-16T02:17:15.034Z,7.41
2019-01-16T02:23:10.012Z,4.49
2019-01-16T02:29:04.989Z,7.21
2019-01-16T02:35:00.060Z,6.13
2019-01-16T02:40:55.000Z,9.88
2019-01-16T02:46:50.011Z,7.85
2019-01-16T02:52:45.020Z,9.82
2019-01-16T02:58:40.006Z,11.36
2019-01-16T03:04:35.036Z,11.48
2019-01-16T03:10:30.045Z,8.1
2019-01-16T03:16:25.028Z,8.86
2019-01-16T03:22:20.024Z,9.34
2019-01-16T03:28:15.014Z,12.4
2019-01-16T03:34:10.042Z,9.29
2019-01-16T03:40:05.069Z,10.1
2019-01-16T03:46:00.015Z,7.54
2019-01-16T03:51:55.031Z,8.97
2019-01-16T03:57:50.022Z,9
2019-01-16T04:03:45.062Z,7.78
2019-01-16T04:09:40.039Z,5.12
2019-01-16T04:15:35.033Z,7.2
2019-01-16T04:21:30.048Z,8.63
2019-01-16T04:27:25.032Z,5.79
2019-01-16T04:33:20.042Z,9.71
2019-01-16T04:39:15.045Z,13.7
2019-01-16T04:45:10.067Z,9.62
2019-01-16T04:51:05.082Z,9.19
2019-01-16T04:57:00.038Z,15.34
2019-01-16T05:02:55.040Z,16.83
2019-01-16T05:08:50.048Z,17.2
2019-01-16T05:14:45.053Z,15.52
2019-01-16T05:20:40.053Z,15.33
2019-01-16T05:26:35.041Z,17.11
2019-01-16T05:32:30.040Z,13.53
2019-01-16T05:38:25.051Z,18.4
2019-01-16T05:44:20.100Z,18.13
2019-01-16T05:50:15.053Z,10.47
2019-01-16T05:56:10.078Z,13.39
2019-01-16T06:02:05.088Z,11.21
2019-01-16T06:08:00.084Z,18.93
2019-01-16T06:13:55.058Z,17.04
2019-01-16T06:19:53.975Z,21.22
2019-01-16T06:25:45.056Z,17.52
2019-01-16T06:31:40.048Z,19.37
2019-01-16T06:37:35.058Z,18.05
2019-01-16T06:43:30.074Z,18.14
2019-01-16T06:49:25.052Z,24.37
2019-01-16T06:55:20.074Z,21.73
2019-01-16T07:01:15.077Z,22.69
2019-01-16T07:07:10.146Z,21.76
2019-01-16T07:13:05.087Z,29.83
2019-01-16T07:19:00.084Z,30.3
2019-01-16T07:24:55.075Z,20.04
2019-01-16T07:30:50.065Z,25.61
2019-01-16T07:36:45.095Z,26.57
2019-01-16T07:42:46.611Z,18.75
2019-01-16T07:48:35.088Z,28
2019-01-16T07:54:30.098Z,22.96
2019-01-16T08:00:25.117Z,22.97
2019-01-16T08:06:20.099Z,26.26
2019-01-16T08:12:15.097Z,25.37
2019-01-16T08:18:10.094Z,31.2
2019-01-16T08:24:05.138Z,33.42
2019-01-16T08:30:00.093Z,31.66
2019-01-16T08:35:55.101Z,32.55
2019-01-16T08:41:50.107Z,30.97
2019-01-16T08:47:45.115Z,23.8
2019-01-16T08:53:40.104Z,25.72
2019-01-16T08:59:35.159Z,26.05
2019-01-16T09:05:30.106Z,25.53
2019-01-16T09:11:25.149Z,24.41
2019-01-16T09:17:20.093Z,23.7
2019-01-16T09:23:15.145Z,27.11
2019-01-16T09:29:10.167Z,26.5
2019-01-16T09:35:05.103Z,30.38
2019-01-16T09:41:00.144Z,28.14
2019-01-16T09:46:55.094Z,29.43
2019-01-16T09:52:50.141Z,30.63
2019-01-16T09:58:45.113Z,30.96
2019-01-16T10:04:40.134Z,30.31
2019-01-16T10:10:35.123Z,31.35
2019-01-16T10:16:30.151Z,28.47
2019-01-16T10:22:25.112Z,30.22
2019-01-16T10:28:20.120Z,23
2019-01-16T10:34:15.119Z,21.85
2019-01-16T10:40:10.130Z,18.37
2019-01-16T10:46:05.114Z,20.72
2019-01-16T10:52:00.152Z,24.91
2019-01-16T10:57:55.140Z,18.61
2019-01-16T11:03:50.137Z,22.75
2019-01-16T11:09:45.150Z,18.76
2019-01-16T11:15:40.136Z,20.09
2019-01-16T11:21:35.130Z,20.94
2019-01-16T11:27:30.135Z,16.33
2019-01-16T11:33:25.139Z,14.76
2019-01-16T11:39:20.148Z,16.03
2019-01-16T11:45:15.198Z,13.41
2019-01-16T11:51:10.174Z,14.53
2019-01-16T11:57:05.139Z,14.17
2019-01-16T12:03:00.147Z,15.13
2019-01-16T12:08:55.189Z,13.45
2019-01-16T12:14:50.173Z,15.09
2019-01-16T12:20:45.185Z,14.44
2019-01-16T12:26:40.145Z,12.47
2019-01-16T12:32:35.122Z,13.54
2019-01-16T12:38:30.153Z,17.98
2019-01-16T12:44:25.144Z,12.4
2019-01-16T12:50:20.188Z,11.96
2019-01-16T12:56:15.145Z,15.24
2019-01-16T13:02:10.153Z,8.7
2019-01-16T13:08:05.227Z,10.79
2019-01-16T13:14:00.143Z,12.34
2019-01-16T13:19:55.137Z,9.3
2019-01-16T13:25:50.142Z,9.81
2019-01-16T13:31:45.181Z,10.02
2019-01-16T13:37:40.162Z,8.31
2019-01-16T13:43:35.159Z,12.19
2019-01-16T13:49:30.157Z,8.16
2019-01-16T13:55:25.162Z,10.01
2019-01-16T14:01:20.170Z,9.36
2019-01-16T14:07:15.171Z,12.82
2019-01-16T14:13:10.221Z,7.24
2019-01-16T14:19:05.189Z,8.8
2019-01-16T14:25:00.191Z,14.11
2019-01-16T14:30:55.195Z,10.58
2019-01-16T14:36:50.171Z,7.37
2019-01-16T14:42:45.210Z,8.89
2019-01-16T14:48:40.172Z,15.88
2019-01-16T14:54:35.192Z,11.46
2019-01-16T15:00:30.162Z,12.32
2019-01-16T15:06:25.175Z,14.87
2019-01-16T15:12:20.222Z,12.63
2019-01-16T15:18:15.220Z,18.24
2019-01-16T15:24:10.165Z,17.3
2019-01-16T15:30:05.223Z,17.38
2019-01-16T15:36:00.221Z,20.86
2019-01-16T15:41:55.271Z,16.11
2019-01-16T15:47:50.184Z,16.88
2019-01-16T15:53:45.196Z,19.8
2019-01-16T15:59:40.202Z,19.59
2019-01-16T16:05:35.211Z,21.55
2019-01-16T16:11:30.201Z,33.99
2019-01-16T16:17:25.283Z,23.47
2019-01-16T16:23:20.198Z,15.25
2019-01-16T16:29:15.225Z,15.7
2019-01-16T16:35:10.235Z,25.74
2019-01-16T16:41:05.179Z,18.29
2019-01-16T16:47:00.212Z,20.22
2019-01-16T16:52:55.199Z,22.93
2019-01-16T16:58:54.392Z,16.87
2019-01-16T17:04:45.207Z,16.97
2019-01-16T17:10:40.240Z,16.93
2019-01-16T17:16:35.203Z,14.41
2019-01-16T17:22:32.420Z,17.06
2019-01-16T17:28:25.225Z,15.28
2019-01-16T17:34:20.226Z,18.6
2019-01-16T17:40:15.206Z,19.48
2019-01-16T17:46:10.218Z,19.63
2019-01-16T17:52:05.279Z,19.46
2019-01-16T17:58:00.223Z,23.47
2019-01-16T18:03:55.222Z,28.63
2019-01-16T18:09:50.226Z,26.41
2019-01-16T18:15:45.239Z,28.68
2019-01-16T18:21:40.224Z,27.16
2019-01-16T18:27:35.235Z,20.73
2019-01-16T18:33:30.250Z,21.95
2019-01-16T18:39:25.263Z,20.33
2019-01-16T18:45:20.318Z,30.5
2019-01-16T18:51:15.229Z,19.77
2019-01-16T18:57:10.218Z,29.58
2019-01-16T19:03:05.257Z,28.45
2019-01-16T19:09:00.226Z,24.91
2019-01-16T19:14:55.229Z,22.91
2019-01-16T19:20:50.245Z,22.71
2019-01-16T19:26:45.270Z,34.11
2019-01-16T19:32:40.234Z,24.04
2019-01-16T19:38:35.228Z,19.73
2019-01-16T19:44:30.250Z,27.36
2019-01-16T19:50:25.295Z,26.25
2019-01-16T19:56:20.224Z,55
2019-01-16T20:02:15.225Z,45.13
2019-01-16T20:08:10.269Z,24.43
2019-01-16T20:14:05.266Z,28.41
2019-01-16T20:20:00.255Z,31.44
2019-01-16T20:25:55.234Z,35.95
2019-01-16T20:31:50.246Z,31.53
2019-01-16T20:37:45.247Z,34.2
2019-01-16T20:43:40.259Z,31.55
2019-01-16T20:49:35.268Z,24.84
2019-01-16T20:55:30.241Z,27.23
2019-01-16T21:01:25.252Z,26.6
2019-01-16T21:07:20.256Z,62.79
2019-01-16T21:13:15.259Z,37.41
2019-01-16T21:19:10.274Z,37.83
2019-01-16T21:25:05.224Z,37.17
2019-01-16T21:31:00.244Z,39.49
2019-01-16T21:36:55.234Z,31.24
2019-01-16T21:42:50.227Z,23.73
2019-01-16T21:48:45.244Z,18.2
2019-01-16T21:54:40.241Z,24.29
2019-01-16T22:00:35.246Z,17.3
2019-01-16T22:06:30.285Z,18.48
2019-01-16T22:12:25.251Z,16.13
2019-01-16T22:18:20.270Z,16.99
2019-01-16T22:24:15.253Z,13.76
2019-01-16T22:30:10.231Z,17.02
2019-01-16T22:36:05.249Z,14.82
2019-01-16T22:42:00.285Z,22.21
2019-01-16T22:47:55.254Z,17.66
2019-01-16T22:53:50.278Z,14.1
2019-01-16T22:59:45.284Z,14.05
2019-01-16T23:05:40.233Z,13.13
2019-01-16T23:11:35.256Z,22.45
2019-01-16T23:17:30.235Z,18.66
2019-01-16T23:23:25.248Z,20.08
2019-01-16T23:29:20.415Z,15.67
2019-01-16T23:35:15.238Z,11.31
2019-01-16T23:41:10.241Z,12.68
2019-01-16T23:47:05.253Z,18.47
2019-01-16T23:53:00.290Z,11.79
2019-01-16T23:58:55.275Z,14.07
